createdAt,value
2019-03-27T00:02:24.477Z,24.27
2019-03-27T00:05:00.352Z,24.87
2019-03-27T00:07:37.407Z,29.02
2019-03-27T00:10:13.582Z,26.73
2019-03-27T00:12:49.793Z,30.25
2019-03-27T00:15:25.691Z,27.52
2019-03-27T00:18:01.604Z,28.90
2019-03-27T00:20:37.505Z,26.75
2019-03-27T00:23:13.571Z,30.88
2019-03-27T00:25:49.330Z,31.30
2019-03-27T00:28:25.169Z,24.37
2019-03-27T00:31:01.018Z,25.85
2019-03-27T00:33:36.885Z,18.23
2019-03-27T00:36:12.833Z,22.90
2019-03-27T00:38:49.815Z,26.85
2019-03-27T00:41:25.660Z,27.00
2019-03-27T00:44:01.547Z,22.52
2019-03-27T00:46:37.979Z,20.45
2019-03-27T00:49:14.249Z,19.07
2019-03-27T00:51:49.993Z,26.97
2019-03-27T00:54:25.849Z,21.40
2019-03-27T00:57:01.715Z,25.05
2019-03-27T00:59:37.577Z,22.22
2019-03-27T01:02:13.422Z,17.90
2019-03-27T01:04:49.278Z,15.70
2019-03-27T01:07:25.542Z,18.87
2019-03-27T01:10:01.811Z,12.47
2019-03-27T01:12:37.765Z,12.82
2019-03-27T01:15:15.358Z,12.78
2019-03-27T01:17:51.202Z,14.28
2019-03-27T01:20:27.991Z,14.53
2019-03-27T01:23:03.946Z,13.80
2019-03-27T01:25:39.788Z,15.28
2019-03-27T01:28:15.638Z,13.25
2019-03-27T01:30:51.428Z,12.05
2019-03-27T01:33:27.260Z,17.15
2019-03-27T01:36:03.113Z,16.60
2019-03-27T01:38:39.203Z,19.90
2019-03-27T01:41:15.420Z,17.65
2019-03-27T01:43:51.172Z,18.95
2019-03-27T01:46:27.030Z,14.13
2019-03-27T01:49:02.783Z,14.95
2019-03-27T01:51:38.637Z,14.70
2019-03-27T01:54:14.755Z,14.60
2019-03-27T01:56:51.066Z,13.05
2019-03-27T01:59:28.027Z,13.00
2019-03-27T02:02:03.993Z,11.35
2019-03-27T02:04:39.852Z,11.93
2019-03-27T02:07:15.697Z,11.48
2019-03-27T02:09:51.558Z,14.43
2019-03-27T02:12:31.930Z,16.25
2019-03-27T02:15:10.744Z,11.85
2019-03-27T02:17:46.490Z,16.20
2019-03-27T02:20:22.455Z,14.85
2019-03-27T02:22:58.298Z,18.57
2019-03-27T02:25:34.263Z,23.57
2019-03-27T02:28:10.224Z,22.77
2019-03-27T02:30:47.087Z,22.05
2019-03-27T02:33:23.979Z,15.13
2019-03-27T02:35:59.725Z,23.05
2019-03-27T02:38:36.403Z,19.87
2019-03-27T02:41:12.266Z,23.77
2019-03-27T02:43:48.104Z,23.40
2019-03-27T02:46:25.668Z,23.15
2019-03-27T02:49:03.905Z,22.58
2019-03-27T02:51:39.863Z,19.80
2019-03-27T02:54:15.749Z,26.42
2019-03-27T02:56:51.586Z,22.93
2019-03-27T02:59:27.429Z,21.70
2019-03-27T03:02:03.182Z,18.77
2019-03-27T03:04:40.065Z,21.10
2019-03-27T03:07:15.945Z,21.17
2019-03-27T03:09:51.804Z,18.55
2019-03-27T03:12:27.724Z,19.67
2019-03-27T03:15:03.588Z,17.32
2019-03-27T03:17:39.611Z,20.65
2019-03-27T03:20:15.499Z,18.87
2019-03-27T03:22:51.338Z,25.20
2019-03-27T03:25:27.091Z,20.80
2019-03-27T03:28:03.317Z,25.72
2019-03-27T03:30:39.116Z,21.15
2019-03-27T03:33:14.859Z,17.17
2019-03-27T03:35:50.726Z,18.32
2019-03-27T03:38:26.580Z,18.17
2019-03-27T03:41:02.615Z,19.35
2019-03-27T03:43:38.397Z,15.72
2019-03-27T03:46:14.129Z,17.57
2019-03-27T03:48:51.131Z,18.40
2019-03-27T03:51:26.969Z,22.00
2019-03-27T03:54:03.235Z,18.75
2019-03-27T03:56:40.835Z,20.08
2019-03-27T03:59:17.172Z,21.25
2019-03-27T04:01:54.679Z,22.00
2019-03-27T04:04:32.081Z,23.70
2019-03-27T04:07:07.925Z,22.62
2019-03-27T04:09:43.786Z,18.70
2019-03-27T04:12:19.642Z,20.85
2019-03-27T04:14:55.483Z,17.07
2019-03-27T04:17:31.346Z,17.27
2019-03-27T04:20:08.562Z,19.77
2019-03-27T04:22:44.489Z,21.77
2019-03-27T04:25:23.199Z,19.57
2019-03-27T04:27:59.271Z,20.65
2019-03-27T04:30:35.130Z,20.02
2019-03-27T04:33:10.985Z,19.42
2019-03-27T04:35:47.132Z,24.05
2019-03-27T04:38:23.610Z,23.20
2019-03-27T04:40:59.461Z,18.57
2019-03-27T04:43:35.202Z,20.92
2019-03-27T04:46:11.065Z,19.52
2019-03-27T04:48:46.915Z,18.35
2019-03-27T04:51:22.869Z,23.92
2019-03-27T04:53:59.145Z,21.57
2019-03-27T04:56:34.994Z,21.20
2019-03-27T04:59:10.837Z,24.72
2019-03-27T05:01:46.794Z,45.43
2019-03-27T05:04:23.443Z,43.23
2019-03-27T05:06:59.326Z,30.88
2019-03-27T05:09:35.704Z,36.65
2019-03-27T05:12:12.047Z,46.00
2019-03-27T05:14:48.179Z,52.67
2019-03-27T05:17:24.431Z,46.73
2019-03-27T05:20:00.383Z,39.33
2019-03-27T05:22:36.196Z,36.55
2019-03-27T05:25:13.591Z,32.45
2019-03-27T05:27:49.632Z,33.15
2019-03-27T05:30:29.477Z,33.00
2019-03-27T05:33:05.341Z,36.55
2019-03-27T05:35:41.298Z,30.08
2019-03-27T05:38:17.545Z,26.42
2019-03-27T05:40:53.545Z,23.62
2019-03-27T05:43:29.320Z,24.52
2019-03-27T05:46:06.035Z,26.10
2019-03-27T05:48:41.893Z,24.45
2019-03-27T05:51:17.855Z,28.60
2019-03-27T05:53:53.720Z,26.35
2019-03-27T05:56:29.679Z,30.52
2019-03-27T05:59:05.526Z,38.40
2019-03-27T06:01:41.384Z,72.80
2019-03-27T06:04:17.232Z,91.60
2019-03-27T06:06:53.082Z,77.27
2019-03-27T06:09:28.966Z,44.23
2019-03-27T06:12:04.790Z,40.45
2019-03-27T06:14:40.658Z,54.40
2019-03-27T06:17:16.539Z,23.62
2019-03-27T06:19:52.361Z,33.00
2019-03-27T06:22:28.216Z,26.87
2019-03-27T06:25:04.475Z,24.90
2019-03-27T06:27:40.363Z,18.25
2019-03-27T06:30:16.272Z,18.35
2019-03-27T06:32:52.138Z,21.20
2019-03-27T06:35:28.011Z,23.02
2019-03-27T06:38:03.832Z,25.32
2019-03-27T06:40:39.948Z,27.55
2019-03-27T06:43:15.894Z,22.50
2019-03-27T06:45:51.708Z,23.90
2019-03-27T06:48:27.864Z,23.85
2019-03-27T06:51:03.718Z,21.55
2019-03-27T06:53:39.605Z,24.40
2019-03-27T06:56:15.801Z,24.82
2019-03-27T06:58:54.849Z,39.53
2019-03-27T07:01:29.503Z,31.10
2019-03-27T07:04:10.870Z,20.50
2019-03-27T07:06:42.954Z,20.27
2019-03-27T07:09:19.247Z,15.80
2019-03-27T07:11:55.073Z,16.27
2019-03-27T07:14:30.930Z,15.85
2019-03-27T07:17:06.765Z,16.27
2019-03-27T07:19:42.618Z,15.13
2019-03-27T07:22:18.487Z,15.55
2019-03-27T07:24:54.390Z,14.70
2019-03-27T07:27:30.186Z,18.35
2019-03-27T07:30:06.922Z,22.48
2019-03-27T07:32:42.706Z,21.27
2019-03-27T07:35:18.884Z,18.25
2019-03-27T07:37:55.239Z,16.67
2019-03-27T07:40:31.093Z,19.02
2019-03-27T07:43:07.473Z,21.95
2019-03-27T07:45:43.313Z,24.25
2019-03-27T07:48:19.173Z,21.93
2019-03-27T07:50:55.028Z,35.78
2019-03-27T07:53:30.871Z,18.70
2019-03-27T07:56:06.738Z,20.48
2019-03-27T07:58:42.993Z,15.40
2019-03-27T08:01:18.858Z,19.35
2019-03-27T08:03:54.706Z,16.90
2019-03-27T08:06:30.560Z,19.55
2019-03-27T08:09:07.914Z,23.98
2019-03-27T08:11:44.315Z,23.60
2019-03-27T08:14:20.266Z,30.80
2019-03-27T08:16:56.134Z,23.22
2019-03-27T08:19:32.397Z,42.23
2019-03-27T08:22:08.247Z,32.15
2019-03-27T08:24:44.714Z,20.27
2019-03-27T08:27:20.764Z,24.98
2019-03-27T08:29:56.840Z,28.70
2019-03-27T08:32:32.679Z,20.62
2019-03-27T08:35:08.750Z,17.82
2019-03-27T08:37:44.599Z,21.30
2019-03-27T08:40:20.458Z,21.73
2019-03-27T08:42:56.504Z,14.20
2019-03-27T08:45:32.259Z,17.17
2019-03-27T08:48:08.109Z,19.02
2019-03-27T08:50:44.994Z,22.15
2019-03-27T08:53:20.938Z,17.20
2019-03-27T08:55:56.809Z,21.50
2019-03-27T08:58:33.060Z,17.00
2019-03-27T09:01:08.913Z,16.95
2019-03-27T09:03:44.795Z,17.50
2019-03-27T09:06:33.028Z,24.63
2019-03-27T09:08:58.314Z,15.58
2019-03-27T09:11:34.184Z,16.37
2019-03-27T09:14:10.032Z,16.30
2019-03-27T09:16:45.876Z,18.10
2019-03-27T09:19:34.545Z,14.20
2019-03-27T09:21:59.342Z,15.53
2019-03-27T09:24:35.186Z,14.45
2019-03-27T09:27:11.041Z,15.58
2019-03-27T09:29:47.157Z,15.88
2019-03-27T09:32:22.951Z,20.27
2019-03-27T09:34:58.703Z,18.82
2019-03-27T09:37:34.451Z,19.50
2019-03-27T09:40:10.483Z,19.95
2019-03-27T09:42:46.369Z,14.55
2019-03-27T09:45:23.103Z,13.83
2019-03-27T09:47:59.011Z,13.10
2019-03-27T09:50:34.744Z,15.03
2019-03-27T09:53:11.734Z,11.30
2019-03-27T09:55:47.802Z,11.70
2019-03-27T09:58:23.850Z,10.08
2019-03-27T10:01:00.216Z,13.38
2019-03-27T10:03:36.068Z,17.17
2019-03-27T10:06:11.915Z,13.45
2019-03-27T10:08:47.779Z,14.35
2019-03-27T10:11:24.057Z,10.08
2019-03-27T10:14:00.260Z,18.57
2019-03-27T10:16:36.051Z,10.82
2019-03-27T10:19:11.912Z,11.12
2019-03-27T10:21:47.771Z,10.28
2019-03-27T10:24:24.636Z,10.10
2019-03-27T10:27:00.625Z,10.00
2019-03-27T10:29:36.665Z,9.50
2019-03-27T10:32:12.513Z,8.33
2019-03-27T10:34:48.236Z,7.25
2019-03-27T10:37:24.129Z,7.90
2019-03-27T10:39:59.966Z,9.05
2019-03-27T10:42:36.241Z,8.15
2019-03-27T10:45:12.910Z,5.65
2019-03-27T10:47:48.669Z,11.93
2019-03-27T10:50:24.923Z,13.75
2019-03-27T10:53:00.788Z,8.33
2019-03-27T10:55:37.153Z,8.80
2019-03-27T10:58:13.001Z,12.18
2019-03-27T11:00:49.362Z,9.80
2019-03-27T11:03:25.237Z,5.55
2019-03-27T11:06:01.625Z,7.10
2019-03-27T11:08:37.899Z,8.25
2019-03-27T11:11:13.687Z,7.58
2019-03-27T11:13:49.549Z,9.05
2019-03-27T11:16:25.511Z,8.23
2019-03-27T11:19:01.464Z,7.65
2019-03-27T11:21:37.327Z,7.37
2019-03-27T11:24:13.171Z,5.33
2019-03-27T11:26:49.227Z,5.35
2019-03-27T11:29:25.088Z,7.97
2019-03-27T11:32:00.840Z,11.55
2019-03-27T11:34:36.703Z,7.15
2019-03-27T11:37:12.434Z,6.87
2019-03-27T11:39:48.358Z,9.83
2019-03-27T11:42:24.159Z,7.15
2019-03-27T11:45:00.375Z,9.95
2019-03-27T11:47:36.370Z,9.33
2019-03-27T11:50:12.320Z,10.28
2019-03-27T11:52:48.549Z,14.50
2019-03-27T11:55:24.854Z,12.85
2019-03-27T11:58:01.070Z,13.75
2019-03-27T12:00:37.148Z,9.08
2019-03-27T12:03:13.038Z,11.90
2019-03-27T12:05:48.998Z,10.40
2019-03-27T12:08:25.158Z,8.58
2019-03-27T12:11:00.932Z,7.15
2019-03-27T12:13:36.964Z,8.78
2019-03-27T12:16:12.812Z,9.85
2019-03-27T12:18:48.659Z,8.50
2019-03-27T12:21:24.637Z,9.30
2019-03-27T12:24:00.715Z,7.97
2019-03-27T12:26:36.423Z,8.38
2019-03-27T12:29:12.291Z,5.78
2019-03-27T12:31:48.149Z,8.08
2019-03-27T12:34:25.128Z,7.37
2019-03-27T12:37:00.955Z,8.08
2019-03-27T12:39:36.847Z,8.03
2019-03-27T12:42:12.573Z,6.40
2019-03-27T12:44:48.446Z,6.53
2019-03-27T12:47:24.178Z,5.35
2019-03-27T12:50:00.785Z,7.95
2019-03-27T12:52:36.617Z,6.53
2019-03-27T12:55:12.467Z,10.05
2019-03-27T12:57:48.327Z,11.80
2019-03-27T13:00:24.557Z,6.10
2019-03-27T13:03:00.345Z,10.60
2019-03-27T13:05:36.208Z,8.33
2019-03-27T13:08:11.943Z,9.20
2019-03-27T13:10:48.442Z,10.78
2019-03-27T13:13:32.358Z,9.03
2019-03-27T13:16:21.807Z,9.10
2019-03-27T13:19:10.772Z,8.33
2019-03-27T13:22:04.146Z,12.00
2019-03-27T13:24:53.455Z,10.05
2019-03-27T13:27:42.582Z,10.82
2019-03-27T13:30:32.250Z,10.28
2019-03-27T13:33:12.901Z,9.80
2019-03-27T13:36:02.804Z,10.23
2019-03-27T13:38:52.427Z,10.38
2019-03-27T13:41:39.307Z,9.18
2019-03-27T13:44:36.265Z,10.88
2019-03-27T13:47:12.939Z,9.30
2019-03-27T13:50:02.649Z,10.55
2019-03-27T13:52:52.943Z,10.88
2019-03-27T13:55:41.461Z,15.35
2019-03-27T13:58:29.894Z,9.28
2019-03-27T14:01:24.496Z,11.90
2019-03-27T14:04:27.496Z,10.67
2019-03-27T14:07:07.858Z,10.78
2019-03-27T14:09:46.865Z,10.30
2019-03-27T14:12:22.621Z,10.20
2019-03-27T14:14:58.591Z,12.18
2019-03-27T14:17:34.318Z,10.72
2019-03-27T14:20:11.101Z,16.17
2019-03-27T14:22:46.981Z,10.38
2019-03-27T14:25:23.108Z,12.45
2019-03-27T14:27:58.985Z,14.55
2019-03-27T14:30:47.124Z,14.58
2019-03-27T14:33:23.479Z,14.30
2019-03-27T14:35:59.331Z,16.32
2019-03-27T14:38:35.183Z,18.02
2019-03-27T14:41:11.044Z,16.57
2019-03-27T14:43:46.893Z,13.58
2019-03-27T14:46:22.652Z,15.43
2019-03-27T14:48:58.505Z,13.35
2019-03-27T14:51:34.363Z,15.38
2019-03-27T14:54:10.208Z,17.27
2019-03-27T14:56:46.067Z,16.55
2019-03-27T14:59:21.920Z,17.57
2019-03-27T15:01:57.773Z,14.55
2019-03-27T15:04:33.832Z,16.20
2019-03-27T15:07:09.909Z,19.23
2019-03-27T15:09:46.670Z,26.40
2019-03-27T15:12:22.728Z,16.75
2019-03-27T15:14:58.580Z,14.68
2019-03-27T15:17:34.424Z,11.60
2019-03-27T15:20:13.159Z,13.43
2019-03-27T15:22:49.015Z,13.48
2019-03-27T15:25:24.749Z,14.05
2019-03-27T15:28:00.975Z,14.15
2019-03-27T15:30:36.771Z,15.38
2019-03-27T15:33:12.518Z,15.05
2019-03-27T15:35:48.265Z,14.30
2019-03-27T15:38:24.122Z,14.83
2019-03-27T15:40:59.974Z,11.43
2019-03-27T15:43:35.726Z,14.43
2019-03-27T15:46:11.593Z,11.35
2019-03-27T15:48:47.438Z,11.63
2019-03-27T15:51:23.310Z,12.33
2019-03-27T15:53:59.352Z,15.65
2019-03-27T15:56:38.336Z,15.30
2019-03-27T15:59:12.811Z,13.28
2019-03-27T16:01:48.691Z,15.48
2019-03-27T16:04:25.220Z,14.30
2019-03-27T16:07:01.080Z,15.53
2019-03-27T16:09:36.944Z,13.18
2019-03-27T16:12:12.788Z,12.55
2019-03-27T16:14:49.782Z,16.40
2019-03-27T16:17:26.335Z,16.62
2019-03-27T16:20:02.193Z,13.45
2019-03-27T16:22:49.829Z,17.42
2019-03-27T16:25:16.554Z,12.63
2019-03-27T16:27:52.531Z,13.50
2019-03-27T16:30:28.591Z,14.20
2019-03-27T16:33:04.443Z,18.35
2019-03-27T16:35:40.296Z,19.82
2019-03-27T16:38:16.143Z,16.20
2019-03-27T16:40:52.314Z,23.87
2019-03-27T16:43:28.156Z,21.02
2019-03-27T16:46:04.214Z,23.52
2019-03-27T16:48:40.106Z,25.10
2019-03-27T16:51:16.129Z,29.10
2019-03-27T16:53:51.984Z,29.87
2019-03-27T16:56:28.032Z,24.52
2019-03-27T16:59:04.008Z,27.15
2019-03-27T17:01:39.858Z,22.13
2019-03-27T17:04:15.821Z,26.87
2019-03-27T17:06:51.772Z,28.10
2019-03-27T17:09:27.979Z,25.57
2019-03-27T17:12:03.890Z,34.75
2019-03-27T17:14:39.742Z,26.57
2019-03-27T17:17:15.975Z,29.18
2019-03-27T17:19:51.996Z,28.98
2019-03-27T17:22:29.330Z,53.17
2019-03-27T17:25:07.534Z,33.42
2019-03-27T17:27:43.357Z,30.12
2019-03-27T17:30:19.388Z,53.28
2019-03-27T17:32:55.250Z,44.75
2019-03-27T17:35:31.050Z,56.00
2019-03-27T17:38:06.934Z,59.20
2019-03-27T17:40:42.946Z,69.45
2019-03-27T17:43:19.065Z,64.17
2019-03-27T17:45:54.845Z,62.30
2019-03-27T17:48:30.768Z,78.42
2019-03-27T17:51:06.608Z,65.37
2019-03-27T17:53:42.828Z,62.48
2019-03-27T17:56:18.724Z,57.05
2019-03-27T17:58:54.679Z,47.00
2019-03-27T18:01:30.544Z,42.75
2019-03-27T18:04:06.586Z,32.58
2019-03-27T18:06:42.455Z,33.25
2019-03-27T18:09:18.814Z,44.95
2019-03-27T18:11:54.769Z,57.55
2019-03-27T18:14:30.628Z,53.50
2019-03-27T18:17:06.446Z,60.65
2019-03-27T18:19:42.239Z,68.62
2019-03-27T18:22:18.060Z,77.00
2019-03-27T18:24:54.867Z,73.45
2019-03-27T18:27:31.208Z,74.35
2019-03-27T18:30:08.264Z,47.83
2019-03-27T18:32:44.211Z,66.42
2019-03-27T18:35:20.048Z,59.18
2019-03-27T18:37:56.015Z,53.23
2019-03-27T18:40:31.990Z,46.30
2019-03-27T18:43:07.821Z,47.35
2019-03-27T18:45:43.661Z,45.85
2019-03-27T18:48:19.492Z,47.93
2019-03-27T18:50:56.567Z,49.67
2019-03-27T18:53:32.435Z,41.63
2019-03-27T18:56:08.414Z,47.73
2019-03-27T18:58:44.237Z,41.90
2019-03-27T19:01:20.088Z,51.70
2019-03-27T19:03:56.091Z,71.75
2019-03-27T19:06:31.910Z,49.23
2019-03-27T19:09:08.969Z,56.77
2019-03-27T19:11:45.456Z,53.40
2019-03-27T19:14:21.414Z,61.80
2019-03-27T19:16:57.623Z,63.33
2019-03-27T19:19:33.453Z,41.40
2019-03-27T19:22:09.242Z,37.45
2019-03-27T19:24:46.105Z,36.85
2019-03-27T19:27:21.913Z,42.98
2019-03-27T19:29:57.850Z,41.92
2019-03-27T19:32:33.890Z,44.48
2019-03-27T19:35:09.649Z,38.05
2019-03-27T19:37:45.381Z,42.10
2019-03-27T19:40:21.201Z,36.55
2019-03-27T19:42:56.964Z,37.00
2019-03-27T19:45:32.758Z,34.38
2019-03-27T19:48:08.601Z,33.25
2019-03-27T19:50:44.459Z,31.07
2019-03-27T19:53:20.222Z,30.27
2019-03-27T19:55:55.999Z,29.95
2019-03-27T19:58:31.846Z,25.70
2019-03-27T20:01:08.012Z,31.97
2019-03-27T20:03:43.812Z,31.87
2019-03-27T20:06:19.780Z,30.72
2019-03-27T20:08:56.927Z,35.68
2019-03-27T20:11:33.232Z,38.50
2019-03-27T20:14:09.228Z,44.00
2019-03-27T20:16:45.165Z,33.92
2019-03-27T20:19:21.039Z,35.63
2019-03-27T20:21:57.325Z,36.48
2019-03-27T20:24:40.958Z,42.43
2019-03-27T20:27:10.716Z,37.90
2019-03-27T20:29:46.814Z,45.73
2019-03-27T20:32:22.952Z,42.05
2019-03-27T20:34:58.794Z,50.55
2019-03-27T20:37:34.618Z,53.40
2019-03-27T20:40:12.709Z,48.48
2019-03-27T20:42:52.036Z,40.60
2019-03-27T20:45:27.094Z,43.78
2019-03-27T20:48:02.908Z,49.58
2019-03-27T20:50:38.655Z,45.90
2019-03-27T20:53:14.504Z,46.15
2019-03-27T20:55:50.676Z,43.73
2019-03-27T20:58:26.518Z,51.73
2019-03-27T21:01:02.349Z,61.65
2019-03-27T21:03:39.097Z,67.05
2019-03-27T21:06:22.474Z,67.42
2019-03-27T21:09:00.363Z,67.85
2019-03-27T21:11:45.246Z,102.00
2019-03-27T21:14:21.619Z,110.42
2019-03-27T21:16:57.430Z,85.15
2019-03-27T21:19:38.349Z,65.42
2019-03-27T21:22:14.959Z,57.03
2019-03-27T21:24:50.675Z,168.40
2019-03-27T21:27:26.424Z,188.05
2019-03-27T21:30:02.260Z,172.37
2019-03-27T21:32:39.081Z,101.12
2019-03-27T21:35:14.966Z,64.35
2019-03-27T21:37:50.862Z,53.52
2019-03-27T21:40:26.714Z,45.25
2019-03-27T21:43:02.571Z,45.25
2019-03-27T21:45:38.423Z,45.35
2019-03-27T21:48:14.262Z,49.18
2019-03-27T21:50:50.230Z,42.45
2019-03-27T21:53:26.082Z,49.67
2019-03-27T21:56:01.938Z,44.35
2019-03-27T21:58:37.796Z,44.65
2019-03-27T22:01:13.648Z,46.37
2019-03-27T22:03:49.506Z,44.70
2019-03-27T22:06:25.344Z,48.28
2019-03-27T22:09:02.336Z,57.67
2019-03-27T22:11:39.733Z,60.88
2019-03-27T22:14:15.680Z,66.82
2019-03-27T22:16:51.543Z,59.05
2019-03-27T22:19:27.854Z,48.92
2019-03-27T22:22:03.762Z,43.17
2019-03-27T22:24:39.818Z,42.25
2019-03-27T22:27:15.673Z,42.17
2019-03-27T22:29:51.596Z,41.53
2019-03-27T22:32:27.588Z,41.30
2019-03-27T22:35:03.978Z,42.27
2019-03-27T22:37:40.193Z,44.35
2019-03-27T22:40:15.969Z,41.05
2019-03-27T22:42:51.823Z,42.05
2019-03-27T22:45:27.674Z,46.98
2019-03-27T22:48:04.041Z,45.17
2019-03-27T22:50:40.292Z,43.23
2019-03-27T22:53:16.158Z,39.60
2019-03-27T22:55:52.013Z,40.38
2019-03-27T22:58:29.095Z,39.18
2019-03-27T23:01:05.288Z,48.23
2019-03-27T23:03:42.681Z,48.13
2019-03-27T23:06:19.063Z,43.17
2019-03-27T23:08:55.798Z,43.92
2019-03-27T23:11:31.638Z,41.20
2019-03-27T23:14:07.905Z,38.70
2019-03-27T23:16:43.964Z,39.48
2019-03-27T23:19:19.818Z,40.30
2019-03-27T23:21:55.690Z,41.33
2019-03-27T23:24:31.629Z,39.85
2019-03-27T23:27:07.483Z,38.58
2019-03-27T23:29:43.336Z,37.70
2019-03-27T23:32:19.188Z,40.03
2019-03-27T23:34:56.173Z,38.60
2019-03-27T23:37:32.025Z,42.98
2019-03-27T23:40:08.082Z,48.58
2019-03-27T23:42:44.860Z,41.30
2019-03-27T23:45:20.920Z,40.20
2019-03-27T23:47:56.873Z,45.67
2019-03-27T23:50:32.729Z,53.10
2019-03-27T23:53:10.221Z,52.38
2019-03-27T23:55:46.177Z,57.48
2019-03-27T23:58:23.673Z,65.35
